Portada
METAR-TAF:

METAR-TAF

Aeroports :

Conakry, Guinea

latitud: 09-34N, longitud: 013-37W, altitud: 26 m

Observació

L'informe es va fer fa 8 hores i 12 minuts, a les 22:00 UTC
Vent calma
Temperatura 27°C
Humitat 79%
Pressió 1011 hPa
Visibilitat: 4000 m
calitja

METAR: GUCY 202200Z 00000KT 4000 HZ NSC 27/23 Q1011 NOSIG

Hora: 06:12 (06:12 UTC)

Pronòstic

L'informe es va fer fa 13 hores i 12 minuts, a les 17:00 UTC
Pronòstic vàlid del 20 a les 18 UTC al 21 a les 24 UTC
Vent 6 kt del Nord-Oest
Visibilitat: 4000 m
calitja
Probabilitat %
entre 30 i UTC
Visibilitat: 3000 m
calitja
Evolucionant progressivament
l' 21 a les 05 UTC al 21 a les 09 UTC
Vent 2 kt amb direcció variable
Visibilitat: 2500 m
Escasses núvols a una alçada de 1600 ft
Núvols disperses a una alçada de 11000 ft
boirina

TAF: GUCY 201700Z 2018/2124 32006KT 4000 HZ NSC PROB 30 TAMPO 2022/2103 3000 HZ NSC BECMG 2105/2109 VRB02KT 2500 BR FEW016 SCT110

Observacions i pronòstics meteorològics de més de 4000 aeroports (METAR i TAF).

Les estacions disponibles són els punts grocs i vermells al mapa.

Posi el ratolí al punt desitjat per veure el nom de l'estació.

Feu clic per veure les observacions i els pronòstics meteorològics.

Per canviar el mapa: feu clic els botons verds amb una creu de color negre per apropar; al botó verd amb un guió per allunyar la imatge; o en les fletxes verdes per a mapes adjacents.


METAR-TAF: